sensor_id;sensor_type;location;lat;lon;timestamp;P1;durP1;ratioP1;P2;durP2;ratioP2
69026;SDS011;56080;47.594;19.116;2023-01-28T00:01:24;16.80;;;7.70;;
69026;SDS011;56080;47.594;19.116;2023-01-28T00:11:23;17.80;;;8.90;;
69026;SDS011;56080;47.594;19.116;2023-01-28T00:21:24;18.80;;;9.50;;
69026;SDS011;56080;47.594;19.116;2023-01-28T00:31:25;19.10;;;9.90;;
69026;SDS011;56080;47.594;19.116;2023-01-28T00:41:26;16.40;;;9.30;;
69026;SDS011;56080;47.594;19.116;2023-01-28T00:51:24;18.70;;;9.90;;
69026;SDS011;56080;47.594;19.116;2023-01-28T01:01:26;19.10;;;9.80;;
69026;SDS011;56080;47.594;19.116;2023-01-28T01:11:24;20.50;;;10.00;;
69026;SDS011;56080;47.594;19.116;2023-01-28T01:21:26;19.90;;;9.50;;
69026;SDS011;56080;47.594;19.116;2023-01-28T01:31:26;19.10;;;9.10;;
69026;SDS011;56080;47.594;19.116;2023-01-28T01:41:32;18.90;;;9.50;;
69026;SDS011;56080;47.594;19.116;2023-01-28T01:51:29;20.10;;;9.00;;
69026;SDS011;56080;47.594;19.116;2023-01-28T02:01:26;18.30;;;9.70;;
69026;SDS011;56080;47.594;19.116;2023-01-28T02:11:26;18.10;;;9.60;;
69026;SDS011;56080;47.594;19.116;2023-01-28T02:31:32;18.20;;;8.60;;
69026;SDS011;56080;47.594;19.116;2023-01-28T02:41:32;15.70;;;7.40;;
69026;SDS011;56080;47.594;19.116;2023-01-28T02:51:38;16.40;;;8.10;;
69026;SDS011;56080;47.594;19.116;2023-01-28T03:01:40;14.40;;;7.00;;
69026;SDS011;56080;47.594;19.116;2023-01-28T03:11:39;16.60;;;8.30;;
69026;SDS011;56080;47.594;19.116;2023-01-28T03:21:41;16.90;;;8.40;;
69026;SDS011;56080;47.594;19.116;2023-01-28T03:31:36;16.50;;;7.70;;
69026;SDS011;56080;47.594;19.116;2023-01-28T03:41:31;16.20;;;7.70;;
69026;SDS011;56080;47.594;19.116;2023-01-28T03:51:28;15.20;;;7.90;;
69026;SDS011;56080;47.594;19.116;2023-01-28T04:01:27;15.30;;;8.30;;
69026;SDS011;56080;47.594;19.116;2023-01-28T04:11:29;17.30;;;8.30;;
69026;SDS011;56080;47.594;19.116;2023-01-28T04:21:27;14.50;;;7.40;;
69026;SDS011;56080;47.594;19.116;2023-01-28T04:31:27;16.30;;;8.00;;
69026;SDS011;56080;47.594;19.116;2023-01-28T04:41:27;15.80;;;8.00;;
69026;SDS011;56080;47.594;19.116;2023-01-28T04:51:28;16.20;;;7.70;;
69026;SDS011;56080;47.594;19.116;2023-01-28T05:01:28;15.30;;;8.20;;
69026;SDS011;56080;47.594;19.116;2023-01-28T05:11:28;15.60;;;8.50;;
69026;SDS011;56080;47.594;19.116;2023-01-28T05:21:28;17.10;;;8.30;;
69026;SDS011;56080;47.594;19.116;2023-01-28T05:31:29;17.30;;;9.20;;
69026;SDS011;56080;47.594;19.116;2023-01-28T05:41:29;18.00;;;8.90;;
69026;SDS011;56080;47.594;19.116;2023-01-28T05:51:29;16.10;;;7.80;;
69026;SDS011;56080;47.594;19.116;2023-01-28T06:01:29;17.70;;;8.80;;
69026;SDS011;56080;47.594;19.116;2023-01-28T06:11:30;16.50;;;8.00;;
69026;SDS011;56080;47.594;19.116;2023-01-28T06:21:30;19.80;;;9.90;;
69026;SDS011;56080;47.594;19.116;2023-01-28T06:31:30;18.70;;;9.90;;
69026;SDS011;56080;47.594;19.116;2023-01-28T06:41:31;20.40;;;10.10;;
69026;SDS011;56080;47.594;19.116;2023-01-28T06:51:31;18.80;;;9.80;;
69026;SDS011;56080;47.594;19.116;2023-01-28T07:01:31;19.90;;;10.00;;
69026;SDS011;56080;47.594;19.116;2023-01-28T07:11:32;20.20;;;9.80;;
69026;SDS011;56080;47.594;19.116;2023-01-28T07:21:31;21.30;;;11.20;;
69026;SDS011;56080;47.594;19.116;2023-01-28T07:31:32;21.10;;;11.00;;
69026;SDS011;56080;47.594;19.116;2023-01-28T07:41:32;23.80;;;11.40;;
69026;SDS011;56080;47.594;19.116;2023-01-28T07:51:32;17.40;;;9.40;;
69026;SDS011;56080;47.594;19.116;2023-01-28T08:01:33;22.70;;;11.40;;
69026;SDS011;56080;47.594;19.116;2023-01-28T08:11:36;19.40;;;9.70;;
69026;SDS011;56080;47.594;19.116;2023-01-28T08:21:34;20.10;;;9.50;;
69026;SDS011;56080;47.594;19.116;2023-01-28T08:31:34;19.80;;;9.70;;
69026;SDS011;56080;47.594;19.116;2023-01-28T08:41:34;18.80;;;9.50;;
69026;SDS011;56080;47.594;19.116;2023-01-28T08:51:35;16.40;;;8.60;;
69026;SDS011;56080;47.594;19.116;2023-01-28T09:01:38;18.90;;;8.90;;
69026;SDS011;56080;47.594;19.116;2023-01-28T09:11:36;15.90;;;8.90;;
69026;SDS011;56080;47.594;19.116;2023-01-28T09:21:38;15.50;;;8.70;;
69026;SDS011;56080;47.594;19.116;2023-01-28T09:31:36;16.60;;;7.90;;
69026;SDS011;56080;47.594;19.116;2023-01-28T09:51:48;15.40;;;8.10;;
69026;SDS011;56080;47.594;19.116;2023-01-28T10:31:43;18.60;;;8.80;;
69026;SDS011;56080;47.594;19.116;2023-01-28T10:41:39;17.60;;;9.60;;
69026;SDS011;56080;47.594;19.116;2023-01-28T10:51:41;18.70;;;9.70;;
69026;SDS011;56080;47.594;19.116;2023-01-28T11:01:52;20.20;;;10.00;;
69026;SDS011;56080;47.594;19.116;2023-01-28T11:11:40;19.20;;;9.50;;
69026;SDS011;56080;47.594;19.116;2023-01-28T11:21:46;17.40;;;8.50;;
69026;SDS011;56080;47.594;19.116;2023-01-28T11:31:47;16.90;;;8.90;;
69026;SDS011;56080;47.594;19.116;2023-01-28T11:41:45;18.10;;;8.60;;
69026;SDS011;56080;47.594;19.116;2023-01-28T12:12:09;17.20;;;8.60;;
69026;SDS011;56080;47.594;19.116;2023-01-28T12:32:02;14.40;;;7.30;;
69026;SDS011;56080;47.594;19.116;2023-01-28T12:52:00;16.20;;;7.40;;
69026;SDS011;56080;47.594;19.116;2023-01-28T13:11:48;16.70;;;7.70;;
69026;SDS011;56080;47.594;19.116;2023-01-28T13:22:08;15.60;;;8.10;;
69026;SDS011;56080;47.594;19.116;2023-01-28T13:31:49;15.50;;;8.30;;
69026;SDS011;56080;47.594;19.116;2023-01-28T13:41:52;17.20;;;8.70;;
69026;SDS011;56080;47.594;19.116;2023-01-28T13:51:58;16.30;;;8.60;;
69026;SDS011;56080;47.594;19.116;2023-01-28T14:01:59;14.50;;;7.40;;
69026;SDS011;56080;47.594;19.116;2023-01-28T14:21:51;17.90;;;8.30;;
69026;SDS011;56080;47.594;19.116;2023-01-28T14:31:52;17.40;;;8.60;;
69026;SDS011;56080;47.594;19.116;2023-01-28T14:41:53;17.80;;;8.60;;
69026;SDS011;56080;47.594;19.116;2023-01-28T15:01:56;19.20;;;8.60;;
69026;SDS011;56080;47.594;19.116;2023-01-28T15:11:58;16.70;;;8.50;;
69026;SDS011;56080;47.594;19.116;2023-01-28T15:21:58;15.50;;;8.60;;
69026;SDS011;56080;47.594;19.116;2023-01-28T15:31:57;21.30;;;9.90;;
69026;SDS011;56080;47.594;19.116;2023-01-28T15:42:04;19.70;;;9.80;;
69026;SDS011;56080;47.594;19.116;2023-01-28T15:51:58;19.00;;;8.70;;
69026;SDS011;56080;47.594;19.116;2023-01-28T16:02:24;16.80;;;8.20;;
69026;SDS011;56080;47.594;19.116;2023-01-28T16:12:00;19.30;;;9.80;;
69026;SDS011;56080;47.594;19.116;2023-01-28T16:21:55;16.90;;;8.30;;
69026;SDS011;56080;47.594;19.116;2023-01-28T16:31:55;14.20;;;8.30;;
69026;SDS011;56080;47.594;19.116;2023-01-28T16:41:56;17.00;;;9.10;;
69026;SDS011;56080;47.594;19.116;2023-01-28T16:51:56;17.10;;;9.30;;
69026;SDS011;56080;47.594;19.116;2023-01-28T17:01:58;14.80;;;8.20;;
69026;SDS011;56080;47.594;19.116;2023-01-28T17:11:57;16.80;;;8.60;;
69026;SDS011;56080;47.594;19.116;2023-01-28T17:21:57;17.70;;;8.80;;
69026;SDS011;56080;47.594;19.116;2023-01-28T17:32:00;15.50;;;8.00;;
69026;SDS011;56080;47.594;19.116;2023-01-28T17:42:01;16.30;;;8.90;;
69026;SDS011;56080;47.594;19.116;2023-01-28T17:51:58;16.10;;;8.30;;
69026;SDS011;56080;47.594;19.116;2023-01-28T18:01:59;17.10;;;8.60;;
69026;SDS011;56080;47.594;19.116;2023-01-28T18:11:59;20.30;;;9.60;;
69026;SDS011;56080;47.594;19.116;2023-01-28T18:22:05;20.80;;;11.30;;
69026;SDS011;56080;47.594;19.116;2023-01-28T18:42:02;17.90;;;9.50;;
69026;SDS011;56080;47.594;19.116;2023-01-28T18:52:01;20.70;;;10.90;;
69026;SDS011;56080;47.594;19.116;2023-01-28T19:02:01;17.70;;;9.60;;
69026;SDS011;56080;47.594;19.116;2023-01-28T19:12:07;19.90;;;10.20;;
69026;SDS011;56080;47.594;19.116;2023-01-28T19:22:02;18.20;;;9.20;;
69026;SDS011;56080;47.594;19.116;2023-01-28T19:32:05;17.30;;;8.90;;
69026;SDS011;56080;47.594;19.116;2023-01-28T19:42:03;17.60;;;9.20;;
69026;SDS011;56080;47.594;19.116;2023-01-28T19:52:05;20.60;;;10.00;;
69026;SDS011;56080;47.594;19.116;2023-01-28T20:02:10;16.80;;;8.40;;
69026;SDS011;56080;47.594;19.116;2023-01-28T20:12:08;18.00;;;9.50;;
69026;SDS011;56080;47.594;19.116;2023-01-28T20:22:06;19.10;;;9.30;;
69026;SDS011;56080;47.594;19.116;2023-01-28T20:32:16;17.30;;;9.30;;
69026;SDS011;56080;47.594;19.116;2023-01-28T20:42:05;17.00;;;9.20;;
69026;SDS011;56080;47.594;19.116;2023-01-28T20:52:05;18.50;;;9.90;;
69026;SDS011;56080;47.594;19.116;2023-01-28T21:02:07;18.70;;;9.50;;
69026;SDS011;56080;47.594;19.116;2023-01-28T21:12:08;16.00;;;8.50;;
69026;SDS011;56080;47.594;19.116;2023-01-28T21:22:06;16.30;;;8.80;;
69026;SDS011;56080;47.594;19.116;2023-01-28T21:32:06;17.60;;;8.70;;
69026;SDS011;56080;47.594;19.116;2023-01-28T21:52:10;18.50;;;9.30;;
69026;SDS011;56080;47.594;19.116;2023-01-28T22:02:12;20.40;;;9.70;;
69026;SDS011;56080;47.594;19.116;2023-01-28T22:12:13;18.70;;;9.50;;
69026;SDS011;56080;47.594;19.116;2023-01-28T22:22:08;18.40;;;9.70;;
69026;SDS011;56080;47.594;19.116;2023-01-28T22:32:09;19.30;;;9.40;;
69026;SDS011;56080;47.594;19.116;2023-01-28T22:52:09;17.70;;;9.10;;
69026;SDS011;56080;47.594;19.116;2023-01-28T23:02:10;18.10;;;9.80;;
69026;SDS011;56080;47.594;19.116;2023-01-28T23:12:10;19.40;;;9.50;;
69026;SDS011;56080;47.594;19.116;2023-01-28T23:22:22;20.10;;;11.00;;
69026;SDS011;56080;47.594;19.116;2023-01-28T23:32:12;21.00;;;10.90;;
69026;SDS011;56080;47.594;19.116;2023-01-28T23:42:21;21.80;;;11.80;;
69026;SDS011;56080;47.594;19.116;2023-01-28T23:52:12;24.20;;;11.90;;
